sensor_id;sensor_type;location;lat;lon;timestamp;pressure;altitude;pressure_sealevel;temperature;humidity
76229;BME280;65021;53.174;18.160;2023-03-11T00:00:37;98334.01;;;0.23;88.13
76229;BME280;65021;53.174;18.160;2023-03-11T00:03:22;98334.02;;;0.23;88.08
76229;BME280;65021;53.174;18.160;2023-03-11T00:05:50;98339.86;;;0.22;88.05
76229;BME280;65021;53.174;18.160;2023-03-11T00:08:19;98337.73;;;0.20;88.08
76229;BME280;65021;53.174;18.160;2023-03-11T00:10:50;98332.32;;;0.19;87.98
76229;BME280;65021;53.174;18.160;2023-03-11T00:13:17;98325.95;;;0.21;87.92
76229;BME280;65021;53.174;18.160;2023-03-11T00:15:46;98322.52;;;0.22;87.76
76229;BME280;65021;53.174;18.160;2023-03-11T00:18:16;98326.16;;;0.23;87.78
76229;BME280;65021;53.174;18.160;2023-03-11T00:20:45;98323.88;;;0.23;87.76
76229;BME280;65021;53.174;18.160;2023-03-11T00:23:12;98326.91;;;0.24;87.70
76229;BME280;65021;53.174;18.160;2023-03-11T00:25:42;98323.25;;;0.25;87.73
76229;BME280;65021;53.174;18.160;2023-03-11T00:28:09;98324.42;;;0.26;87.71
76229;BME280;65021;53.174;18.160;2023-03-11T00:30:37;98323.59;;;0.25;87.80
76229;BME280;65021;53.174;18.160;2023-03-11T00:33:05;98329.59;;;0.24;87.73
76229;BME280;65021;53.174;18.160;2023-03-11T00:35:33;98322.70;;;0.24;87.78
76229;BME280;65021;53.174;18.160;2023-03-11T00:38:04;98318.12;;;0.24;87.86
76229;BME280;65021;53.174;18.160;2023-03-11T00:40:33;98316.05;;;0.24;87.89
76229;BME280;65021;53.174;18.160;2023-03-11T00:42:59;98298.74;;;0.26;87.84
76229;BME280;65021;53.174;18.160;2023-03-11T00:45:26;98291.48;;;0.26;87.96
76229;BME280;65021;53.174;18.160;2023-03-11T00:47:54;98284.19;;;0.27;87.99
76229;BME280;65021;53.174;18.160;2023-03-11T00:50:27;98278.95;;;0.28;87.92
76229;BME280;65021;53.174;18.160;2023-03-11T00:52:54;98275.24;;;0.28;88.00
76229;BME280;65021;53.174;18.160;2023-03-11T00:55:24;98270.38;;;0.28;88.00
76229;BME280;65021;53.174;18.160;2023-03-11T00:57:52;98268.90;;;0.28;88.11
76229;BME280;65021;53.174;18.160;2023-03-11T01:00:21;98273.98;;;0.28;88.15
76229;BME280;65021;53.174;18.160;2023-03-11T01:02:48;98284.42;;;0.28;88.13
76229;BME280;65021;53.174;18.160;2023-03-11T01:05:14;98290.30;;;0.30;88.11
76229;BME280;65021;53.174;18.160;2023-03-11T01:07:41;98289.52;;;0.31;88.05
76229;BME280;65021;53.174;18.160;2023-03-11T01:10:08;98290.20;;;0.32;87.92
76229;BME280;65021;53.174;18.160;2023-03-11T01:12:35;98290.98;;;0.33;87.93
76229;BME280;65021;53.174;18.160;2023-03-11T01:15:03;98294.62;;;0.34;87.97
76229;BME280;65021;53.174;18.160;2023-03-11T01:17:31;98297.48;;;0.36;87.93
76229;BME280;65021;53.174;18.160;2023-03-11T01:19:57;98301.53;;;0.36;87.83
76229;BME280;65021;53.174;18.160;2023-03-11T01:22:24;98304.09;;;0.38;87.85
76229;BME280;65021;53.174;18.160;2023-03-11T01:24:50;98298.51;;;0.38;87.71
76229;BME280;65021;53.174;18.160;2023-03-11T01:27:17;98294.77;;;0.37;87.76
76229;BME280;65021;53.174;18.160;2023-03-11T01:29:43;98292.32;;;0.36;87.65
76229;BME280;65021;53.174;18.160;2023-03-11T01:32:10;98294.40;;;0.35;87.74
76229;BME280;65021;53.174;18.160;2023-03-11T01:34:36;98293.60;;;0.33;87.72
76229;BME280;65021;53.174;18.160;2023-03-11T01:37:03;98297.02;;;0.32;87.69
76229;BME280;65021;53.174;18.160;2023-03-11T01:39:29;98294.05;;;0.31;87.68
76229;BME280;65021;53.174;18.160;2023-03-11T01:41:56;98292.38;;;0.29;87.69
76229;BME280;65021;53.174;18.160;2023-03-11T01:44:23;98294.16;;;0.28;87.74
76229;BME280;65021;53.174;18.160;2023-03-11T01:49:21;98300.09;;;0.28;87.62
76229;BME280;65021;53.174;18.160;2023-03-11T01:51:50;98300.73;;;0.27;87.65
76229;BME280;65021;53.174;18.160;2023-03-11T01:54:20;98301.88;;;0.26;87.73
76229;BME280;65021;53.174;18.160;2023-03-11T01:56:49;98305.88;;;0.27;87.61
76229;BME280;65021;53.174;18.160;2023-03-11T01:59:21;98304.68;;;0.28;87.67
76229;BME280;65021;53.174;18.160;2023-03-11T02:02:03;98304.84;;;0.27;87.59
76229;BME280;65021;53.174;18.160;2023-03-11T02:04:35;98309.22;;;0.27;87.62
76229;BME280;65021;53.174;18.160;2023-03-11T02:07:03;98309.62;;;0.31;87.62
76229;BME280;65021;53.174;18.160;2023-03-11T02:09:29;98304.91;;;0.33;87.56
76229;BME280;65021;53.174;18.160;2023-03-11T02:11:56;98302.83;;;0.34;87.54
76229;BME280;65021;53.174;18.160;2023-03-11T02:14:24;98303.17;;;0.35;87.57
76229;BME280;65021;53.174;18.160;2023-03-11T02:16:52;98302.50;;;0.38;87.51
76229;BME280;65021;53.174;18.160;2023-03-11T02:19:37;98300.01;;;0.38;87.40
76229;BME280;65021;53.174;18.160;2023-03-11T02:22:07;98298.20;;;0.38;87.48
76229;BME280;65021;53.174;18.160;2023-03-11T02:24:56;98295.13;;;0.38;87.46
76229;BME280;65021;53.174;18.160;2023-03-11T02:27:26;98296.15;;;0.37;87.55
76229;BME280;65021;53.174;18.160;2023-03-11T02:29:54;98298.86;;;0.36;87.55
76229;BME280;65021;53.174;18.160;2023-03-11T02:32:22;98302.41;;;0.34;87.56
76229;BME280;65021;53.174;18.160;2023-03-11T02:34:48;98304.51;;;0.32;87.59
76229;BME280;65021;53.174;18.160;2023-03-11T02:37:16;98309.15;;;0.29;87.76
76229;BME280;65021;53.174;18.160;2023-03-11T02:39:49;98311.71;;;0.27;87.80
76229;BME280;65021;53.174;18.160;2023-03-11T02:42:27;98312.50;;;0.25;87.66
76229;BME280;65021;53.174;18.160;2023-03-11T02:45:04;98309.63;;;0.24;87.72
76229;BME280;65021;53.174;18.160;2023-03-11T02:47:33;98311.21;;;0.22;87.83
76229;BME280;65021;53.174;18.160;2023-03-11T02:50:01;98317.66;;;0.19;87.84
76229;BME280;65021;53.174;18.160;2023-03-11T02:52:28;98317.59;;;0.18;87.75
76229;BME280;65021;53.174;18.160;2023-03-11T02:54:54;98320.45;;;0.19;87.72
76229;BME280;65021;53.174;18.160;2023-03-11T02:57:21;98324.06;;;0.17;87.57
76229;BME280;65021;53.174;18.160;2023-03-11T02:59:47;98322.48;;;0.15;87.52
76229;BME280;65021;53.174;18.160;2023-03-11T03:02:14;98325.44;;;0.15;87.59
76229;BME280;65021;53.174;18.160;2023-03-11T03:04:41;98331.09;;;0.14;87.65
76229;BME280;65021;53.174;18.160;2023-03-11T03:07:08;98333.40;;;0.14;87.55
76229;BME280;65021;53.174;18.160;2023-03-11T03:09:35;98333.48;;;0.14;87.58
76229;BME280;65021;53.174;18.160;2023-03-11T03:12:03;98338.48;;;0.14;87.68
76229;BME280;65021;53.174;18.160;2023-03-11T03:14:30;98345.91;;;0.14;87.68
76229;BME280;65021;53.174;18.160;2023-03-11T03:16:56;98344.77;;;0.15;87.70
76229;BME280;65021;53.174;18.160;2023-03-11T03:19:23;98345.85;;;0.15;87.58
76229;BME280;65021;53.174;18.160;2023-03-11T03:21:50;98351.16;;;0.14;87.74
76229;BME280;65021;53.174;18.160;2023-03-11T03:24:16;98352.19;;;0.14;87.73
76229;BME280;65021;53.174;18.160;2023-03-11T03:26:43;98358.52;;;0.14;87.64
76229;BME280;65021;53.174;18.160;2023-03-11T03:29:09;98361.97;;;0.14;87.86
76229;BME280;65021;53.174;18.160;2023-03-11T03:31:37;98364.86;;;0.13;87.96
76229;BME280;65021;53.174;18.160;2023-03-11T03:34:04;98362.36;;;0.13;87.84
76229;BME280;65021;53.174;18.160;2023-03-11T03:36:30;98366.02;;;0.13;87.94
76229;BME280;65021;53.174;18.160;2023-03-11T03:38:57;98368.97;;;0.12;87.84
76229;BME280;65021;53.174;18.160;2023-03-11T03:41:24;98373.79;;;0.13;87.66
76229;BME280;65021;53.174;18.160;2023-03-11T03:43:51;98377.02;;;0.13;87.91
76229;BME280;65021;53.174;18.160;2023-03-11T03:46:20;98376.50;;;0.14;87.96
76229;BME280;65021;53.174;18.160;2023-03-11T03:48:47;98379.84;;;0.15;88.03
76229;BME280;65021;53.174;18.160;2023-03-11T03:51:14;98383.73;;;0.17;88.32
76229;BME280;65021;53.174;18.160;2023-03-11T03:53:41;98387.09;;;0.19;88.13
76229;BME280;65021;53.174;18.160;2023-03-11T03:56:10;98389.48;;;0.21;88.17
76229;BME280;65021;53.174;18.160;2023-03-11T03:58:38;98392.55;;;0.21;88.25
76229;BME280;65021;53.174;18.160;2023-03-11T04:01:05;98396.21;;;0.21;88.50
76229;BME280;65021;53.174;18.160;2023-03-11T04:03:32;98394.09;;;0.21;88.35
76229;BME280;65021;53.174;18.160;2023-03-11T04:06:10;98394.59;;;0.22;88.15
76229;BME280;65021;53.174;18.160;2023-03-11T04:08:40;98394.42;;;0.22;88.19
76229;BME280;65021;53.174;18.160;2023-03-11T04:11:07;98397.23;;;0.22;88.10
76229;BME280;65021;53.174;18.160;2023-03-11T04:13:34;98398.39;;;0.23;88.07
76229;BME280;65021;53.174;18.160;2023-03-11T04:16:05;98403.29;;;0.24;87.88
76229;BME280;65021;53.174;18.160;2023-03-11T04:18:33;98404.57;;;0.26;87.97
76229;BME280;65021;53.174;18.160;2023-03-11T04:21:04;98408.48;;;0.26;87.91
76229;BME280;65021;53.174;18.160;2023-03-11T04:23:30;98417.33;;;0.27;87.89
76229;BME280;65021;53.174;18.160;2023-03-11T04:25:58;98415.70;;;0.26;87.96
76229;BME280;65021;53.174;18.160;2023-03-11T04:28:25;98420.33;;;0.24;88.07
76229;BME280;65021;53.174;18.160;2023-03-11T04:30:51;98416.70;;;0.24;88.17
76229;BME280;65021;53.174;18.160;2023-03-11T04:33:18;98421.30;;;0.25;88.14
76229;BME280;65021;53.174;18.160;2023-03-11T04:35:45;98425.04;;;0.23;88.13
76229;BME280;65021;53.174;18.160;2023-03-11T04:38:11;98427.91;;;0.22;88.09
76229;BME280;65021;53.174;18.160;2023-03-11T04:40:38;98431.51;;;0.19;88.01
76229;BME280;65021;53.174;18.160;2023-03-11T04:43:05;98430.57;;;0.14;87.86
76229;BME280;65021;53.174;18.160;2023-03-11T04:45:32;98438.29;;;0.10;87.88
76229;BME280;65021;53.174;18.160;2023-03-11T04:47:58;98439.05;;;0.08;87.83
76229;BME280;65021;53.174;18.160;2023-03-11T04:50:25;98443.80;;;0.04;87.81
76229;BME280;65021;53.174;18.160;2023-03-11T04:52:51;98449.82;;;0.02;87.89
76229;BME280;65021;53.174;18.160;2023-03-11T04:55:18;98453.59;;;-0.01;87.78
76229;BME280;65021;53.174;18.160;2023-03-11T04:57:45;98452.41;;;-0.02;87.72
76229;BME280;65021;53.174;18.160;2023-03-11T05:00:12;98461.17;;;-0.05;87.84
76229;BME280;65021;53.174;18.160;2023-03-11T05:02:41;98462.52;;;-0.06;87.71
76229;BME280;65021;53.174;18.160;2023-03-11T05:05:08;98470.13;;;-0.07;87.89
76229;BME280;65021;53.174;18.160;2023-03-11T05:07:35;98478.75;;;-0.08;87.99
76229;BME280;65021;53.174;18.160;2023-03-11T05:10:04;98480.05;;;-0.08;87.83
76229;BME280;65021;53.174;18.160;2023-03-11T05:12:31;98483.79;;;-0.08;87.86
76229;BME280;65021;53.174;18.160;2023-03-11T05:14:58;98489.89;;;-0.06;87.95
76229;BME280;65021;53.174;18.160;2023-03-11T05:17:24;98488.88;;;-0.03;88.06
76229;BME280;65021;53.174;18.160;2023-03-11T05:19:52;98488.48;;;0.01;87.96
76229;BME280;65021;53.174;18.160;2023-03-11T05:22:20;98482.02;;;0.03;88.12
76229;BME280;65021;53.174;18.160;2023-03-11T05:24:48;98486.20;;;0.07;87.92
76229;BME280;65021;53.174;18.160;2023-03-11T05:27:15;98485.30;;;0.10;87.83
76229;BME280;65021;53.174;18.160;2023-03-11T05:29:43;98492.82;;;0.11;88.06
76229;BME280;65021;53.174;18.160;2023-03-11T05:32:11;98498.98;;;0.11;88.07
76229;BME280;65021;53.174;18.160;2023-03-11T05:34:38;98509.55;;;0.14;87.94
76229;BME280;65021;53.174;18.160;2023-03-11T05:37:05;98514.93;;;0.17;87.97
76229;BME280;65021;53.174;18.160;2023-03-11T05:39:32;98516.76;;;0.20;87.92
76229;BME280;65021;53.174;18.160;2023-03-11T05:41:58;98523.12;;;0.23;87.69
76229;BME280;65021;53.174;18.160;2023-03-11T05:44:25;98523.35;;;0.28;87.72
76229;BME280;65021;53.174;18.160;2023-03-11T05:46:51;98533.66;;;0.29;87.74
76229;BME280;65021;53.174;18.160;2023-03-11T05:49:18;98534.36;;;0.32;87.62
76229;BME280;65021;53.174;18.160;2023-03-11T05:51:48;98545.76;;;0.35;87.58
76229;BME280;65021;53.174;18.160;2023-03-11T05:54:15;98544.63;;;0.37;87.45
76229;BME280;65021;53.174;18.160;2023-03-11T05:56:43;98556.41;;;0.39;87.49
76229;BME280;65021;53.174;18.160;2023-03-11T05:59:12;98555.48;;;0.43;87.41
76229;BME280;65021;53.174;18.160;2023-03-11T06:01:39;98562.20;;;0.49;87.39
76229;BME280;65021;53.174;18.160;2023-03-11T06:04:05;98564.96;;;0.55;87.36
76229;BME280;65021;53.174;18.160;2023-03-11T06:06:32;98571.80;;;0.60;87.13
76229;BME280;65021;53.174;18.160;2023-03-11T06:08:58;98570.89;;;0.65;87.01
76229;BME280;65021;53.174;18.160;2023-03-11T06:11:25;98582.15;;;0.69;86.99
76229;BME280;65021;53.174;18.160;2023-03-11T06:13:53;98605.05;;;0.67;86.68
76229;BME280;65021;53.174;18.160;2023-03-11T06:16:21;98606.69;;;0.64;86.32
76229;BME280;65021;53.174;18.160;2023-03-11T06:18:48;98615.47;;;0.68;86.37
76229;BME280;65021;53.174;18.160;2023-03-11T06:21:20;98621.54;;;0.72;86.48
76229;BME280;65021;53.174;18.160;2023-03-11T06:23:47;98632.83;;;0.74;86.54
76229;BME280;65021;53.174;18.160;2023-03-11T06:26:16;98640.92;;;0.69;86.32
76229;BME280;65021;53.174;18.160;2023-03-11T06:28:44;98650.95;;;0.63;86.20
76229;BME280;65021;53.174;18.160;2023-03-11T06:31:15;98654.21;;;0.54;85.84
76229;BME280;65021;53.174;18.160;2023-03-11T06:33:42;98661.59;;;0.54;86.06
76229;BME280;65021;53.174;18.160;2023-03-11T06:36:11;98669.17;;;0.54;86.13
76229;BME280;65021;53.174;18.160;2023-03-11T06:38:38;98672.63;;;0.54;86.02
76229;BME280;65021;53.174;18.160;2023-03-11T06:41:06;98678.41;;;0.53;85.93
76229;BME280;65021;53.174;18.160;2023-03-11T06:43:34;98685.34;;;0.51;85.78
76229;BME280;65021;53.174;18.160;2023-03-11T06:46:01;98691.70;;;0.50;85.69
76229;BME280;65021;53.174;18.160;2023-03-11T06:48:33;98703.65;;;0.49;85.80
76229;BME280;65021;53.174;18.160;2023-03-11T06:51:00;98714.30;;;0.49;85.78
76229;BME280;65021;53.174;18.160;2023-03-11T06:53:27;98723.05;;;0.53;85.89
76229;BME280;65021;53.174;18.160;2023-03-11T06:58:24;98731.09;;;0.61;85.63
76229;BME280;65021;53.174;18.160;2023-03-11T07:00:50;98732.27;;;0.71;85.56
76229;BME280;65021;53.174;18.160;2023-03-11T07:03:17;98742.45;;;0.77;85.32
76229;BME280;65021;53.174;18.160;2023-03-11T07:05:44;98753.36;;;0.75;84.61
76229;BME280;65021;53.174;18.160;2023-03-11T07:08:10;98759.48;;;0.80;84.58
76229;BME280;65021;53.174;18.160;2023-03-11T07:10:37;98764.52;;;0.80;84.62
76229;BME280;65021;53.174;18.160;2023-03-11T07:13:03;98774.80;;;0.73;83.99
76229;BME280;65021;53.174;18.160;2023-03-11T07:15:30;98779.89;;;0.76;84.20
76229;BME280;65021;53.174;18.160;2023-03-11T07:17:56;98793.73;;;0.81;84.33
76229;BME280;65021;53.174;18.160;2023-03-11T07:20:23;98801.54;;;0.77;83.89
76229;BME280;65021;53.174;18.160;2023-03-11T07:22:49;98812.71;;;0.75;84.02
76229;BME280;65021;53.174;18.160;2023-03-11T07:25:16;98813.90;;;0.71;84.14
76229;BME280;65021;53.174;18.160;2023-03-11T07:27:43;98820.58;;;0.69;84.40
76229;BME280;65021;53.174;18.160;2023-03-11T07:30:10;98820.02;;;0.66;84.61
76229;BME280;65021;53.174;18.160;2023-03-11T07:32:36;98832.73;;;0.64;84.64
76229;BME280;65021;53.174;18.160;2023-03-11T07:35:03;98837.41;;;0.63;84.59
76229;BME280;65021;53.174;18.160;2023-03-11T07:37:30;98847.05;;;0.62;84.69
76229;BME280;65021;53.174;18.160;2023-03-11T07:39:56;98848.65;;;0.60;84.42
76229;BME280;65021;53.174;18.160;2023-03-11T07:42:23;98855.91;;;0.54;84.46
76229;BME280;65021;53.174;18.160;2023-03-11T07:44:50;98863.76;;;0.42;84.35
76229;BME280;65021;53.174;18.160;2023-03-11T07:47:17;98870.29;;;0.37;84.60
76229;BME280;65021;53.174;18.160;2023-03-11T07:49:43;98867.10;;;0.32;84.62
76229;BME280;65021;53.174;18.160;2023-03-11T07:52:10;98880.48;;;0.27;84.75
76229;BME280;65021;53.174;18.160;2023-03-11T07:54:36;98895.20;;;0.14;84.76
76229;BME280;65021;53.174;18.160;2023-03-11T07:57:03;98895.55;;;0.13;84.95
76229;BME280;65021;53.174;18.160;2023-03-11T07:59:30;98903.31;;;0.10;84.96
76229;BME280;65021;53.174;18.160;2023-03-11T08:01:56;98903.82;;;0.09;85.01
76229;BME280;65021;53.174;18.160;2023-03-11T08:04:23;98908.88;;;0.09;84.93
76229;BME280;65021;53.174;18.160;2023-03-11T08:06:49;98915.16;;;0.05;84.75
76229;BME280;65021;53.174;18.160;2023-03-11T08:09:16;98918.91;;;0.04;84.84
76229;BME280;65021;53.174;18.160;2023-03-11T08:11:43;98925.91;;;0.05;84.66
76229;BME280;65021;53.174;18.160;2023-03-11T08:14:09;98927.83;;;0.04;84.51
76229;BME280;65021;53.174;18.160;2023-03-11T08:16:38;98939.78;;;0.05;84.36
76229;BME280;65021;53.174;18.160;2023-03-11T08:19:05;98948.40;;;0.05;84.37
76229;BME280;65021;53.174;18.160;2023-03-11T08:21:32;98957.25;;;0.06;84.58
76229;BME280;65021;53.174;18.160;2023-03-11T08:24:00;98967.84;;;0.11;84.53
76229;BME280;65021;53.174;18.160;2023-03-11T08:26:27;98976.62;;;0.17;84.25
76229;BME280;65021;53.174;18.160;2023-03-11T08:28:54;98979.81;;;0.21;83.67
76229;BME280;65021;53.174;18.160;2023-03-11T08:31:27;98983.98;;;0.24;83.45
76229;BME280;65021;53.174;18.160;2023-03-11T08:34:06;98995.71;;;0.23;83.24
76229;BME280;65021;53.174;18.160;2023-03-11T08:36:34;99002.98;;;0.18;83.24
76229;BME280;65021;53.174;18.160;2023-03-11T08:39:00;99005.30;;;0.15;83.41
76229;BME280;65021;53.174;18.160;2023-03-11T08:41:27;99002.70;;;0.13;83.61
76229;BME280;65021;53.174;18.160;2023-03-11T08:43:54;99008.34;;;0.07;83.76
76229;BME280;65021;53.174;18.160;2023-03-11T08:46:25;99018.30;;;0.06;83.89
76229;BME280;65021;53.174;18.160;2023-03-11T08:48:53;99014.96;;;0.02;84.16
76229;BME280;65021;53.174;18.160;2023-03-11T08:51:20;99020.77;;;0.08;84.23
76229;BME280;65021;53.174;18.160;2023-03-11T08:53:47;99029.66;;;0.09;83.87
76229;BME280;65021;53.174;18.160;2023-03-11T08:56:14;99033.79;;;0.15;83.35
76229;BME280;65021;53.174;18.160;2023-03-11T08:58:40;99043.25;;;0.20;83.28
76229;BME280;65021;53.174;18.160;2023-03-11T09:01:07;99047.86;;;0.32;83.35
76229;BME280;65021;53.174;18.160;2023-03-11T09:03:37;99055.89;;;0.41;82.88
76229;BME280;65021;53.174;18.160;2023-03-11T09:06:07;99063.94;;;0.50;82.75
76229;BME280;65021;53.174;18.160;2023-03-11T09:08:35;99071.02;;;0.57;82.97
76229;BME280;65021;53.174;18.160;2023-03-11T09:11:01;99080.09;;;0.62;82.66
76229;BME280;65021;53.174;18.160;2023-03-11T09:13:28;99086.31;;;0.60;82.62
76229;BME280;65021;53.174;18.160;2023-03-11T09:15:55;99097.48;;;0.62;82.55
76229;BME280;65021;53.174;18.160;2023-03-11T09:18:23;99101.64;;;0.57;82.66
76229;BME280;65021;53.174;18.160;2023-03-11T09:20:49;99107.19;;;0.52;82.66
76229;BME280;65021;53.174;18.160;2023-03-11T09:23:17;99116.34;;;0.48;82.58
76229;BME280;65021;53.174;18.160;2023-03-11T09:25:44;99116.39;;;0.54;82.57
76229;BME280;65021;53.174;18.160;2023-03-11T09:28:10;99128.58;;;0.60;82.24
76229;BME280;65021;53.174;18.160;2023-03-11T09:30:37;99129.39;;;0.62;81.55
76229;BME280;65021;53.174;18.160;2023-03-11T09:33:04;99129.54;;;0.61;81.00
76229;BME280;65021;53.174;18.160;2023-03-11T09:35:31;99141.33;;;0.62;80.92
76229;BME280;65021;53.174;18.160;2023-03-11T09:37:58;99144.41;;;0.66;80.73
76229;BME280;65021;53.174;18.160;2023-03-11T09:40:27;99149.42;;;0.72;81.07
76229;BME280;65021;53.174;18.160;2023-03-11T09:43:16;99156.65;;;0.74;80.51
76229;BME280;65021;53.174;18.160;2023-03-11T09:45:54;99164.73;;;0.78;80.88
76229;BME280;65021;53.174;18.160;2023-03-11T09:48:40;99172.48;;;0.72;80.10
76229;BME280;65021;53.174;18.160;2023-03-11T09:51:31;99177.91;;;0.71;79.93
76229;BME280;65021;53.174;18.160;2023-03-11T09:54:05;99190.29;;;0.68;79.64
76229;BME280;65021;53.174;18.160;2023-03-11T09:56:36;99191.16;;;0.76;80.46
76229;BME280;65021;53.174;18.160;2023-03-11T09:59:07;99201.33;;;0.79;80.27
76229;BME280;65021;53.174;18.160;2023-03-11T10:01:45;99212.50;;;0.76;79.72
76229;BME280;65021;53.174;18.160;2023-03-11T10:04:31;99215.70;;;0.80;80.18
76229;BME280;65021;53.174;18.160;2023-03-11T10:07:01;99225.95;;;0.89;79.09
76229;BME280;65021;53.174;18.160;2023-03-11T10:09:57;99231.43;;;1.08;78.30
76229;BME280;65021;53.174;18.160;2023-03-11T10:28:41;99257.57;;;2.83;75.92
76229;BME280;65021;53.174;18.160;2023-03-11T10:31:24;99268.31;;;2.81;75.96
76229;BME280;65021;53.174;18.160;2023-03-11T10:34:05;99280.25;;;2.46;74.16
76229;BME280;65021;53.174;18.160;2023-03-11T10:39:46;99293.85;;;2.10;75.36
76229;BME280;65021;53.174;18.160;2023-03-11T10:42:22;99295.58;;;1.98;76.32
76229;BME280;65021;53.174;18.160;2023-03-11T10:44:50;99301.34;;;2.15;76.24
76229;BME280;65021;53.174;18.160;2023-03-11T10:47:22;99303.31;;;2.38;76.55
76229;BME280;65021;53.174;18.160;2023-03-11T10:49:50;99308.13;;;2.64;76.32
76229;BME280;65021;53.174;18.160;2023-03-11T10:52:20;99314.22;;;2.55;74.41
76229;BME280;65021;53.174;18.160;2023-03-11T10:54:51;99317.89;;;2.38;74.37
76229;BME280;65021;53.174;18.160;2023-03-11T10:57:35;99321.52;;;2.28;75.22
76229;BME280;65021;53.174;18.160;2023-03-11T11:00:06;99324.45;;;2.14;75.51
76229;BME280;65021;53.174;18.160;2023-03-11T11:02:52;99328.17;;;2.02;75.68
76229;BME280;65021;53.174;18.160;2023-03-11T11:07:50;99333.83;;;2.04;74.43
76229;BME280;65021;53.174;18.160;2023-03-11T11:10:20;99330.91;;;2.02;73.87
76229;BME280;65021;53.174;18.160;2023-03-11T11:15:41;99336.53;;;1.79;74.67
76229;BME280;65021;53.174;18.160;2023-03-11T11:20:58;99352.27;;;1.61;75.81
76229;BME280;65021;53.174;18.160;2023-03-11T11:26:23;99361.77;;;1.36;75.55
76229;BME280;65021;53.174;18.160;2023-03-11T11:29:10;99370.50;;;1.40;75.45
76229;BME280;65021;53.174;18.160;2023-03-11T11:31:40;99374.16;;;1.65;74.99
76229;BME280;65021;53.174;18.160;2023-03-11T11:36:49;99378.73;;;2.17;74.70
76229;BME280;65021;53.174;18.160;2023-03-11T11:39:17;99385.93;;;2.34;73.96
76229;BME280;65021;53.174;18.160;2023-03-11T11:41:47;99385.20;;;2.48;74.06
76229;BME280;65021;53.174;18.160;2023-03-11T11:44:18;99391.35;;;2.57;74.24
76229;BME280;65021;53.174;18.160;2023-03-11T11:46:55;99394.22;;;2.78;74.42
76229;BME280;65021;53.174;18.160;2023-03-11T11:52:17;99403.59;;;2.88;72.97
76229;BME280;65021;53.174;18.160;2023-03-11T11:57:13;99410.66;;;2.99;71.51
76229;BME280;65021;53.174;18.160;2023-03-11T11:59:40;99416.42;;;3.07;71.42
76229;BME280;65021;53.174;18.160;2023-03-11T12:02:41;99420.19;;;3.07;71.76
76229;BME280;65021;53.174;18.160;2023-03-11T12:05:32;99420.70;;;2.88;71.18
76229;BME280;65021;53.174;18.160;2023-03-11T12:08:20;99428.60;;;3.06;71.64
76229;BME280;65021;53.174;18.160;2023-03-11T12:11:00;99430.61;;;3.13;72.11
76229;BME280;65021;53.174;18.160;2023-03-11T12:16:39;99447.75;;;2.75;71.49
76229;BME280;65021;53.174;18.160;2023-03-11T12:27:26;99470.20;;;2.17;70.29
76229;BME280;65021;53.174;18.160;2023-03-11T12:30:19;99471.98;;;2.21;71.39
76229;BME280;65021;53.174;18.160;2023-03-11T12:32:54;99474.32;;;2.27;71.06
76229;BME280;65021;53.174;18.160;2023-03-11T12:35:28;99478.80;;;2.22;69.54
76229;BME280;65021;53.174;18.160;2023-03-11T12:38:01;99482.11;;;2.29;69.64
76229;BME280;65021;53.174;18.160;2023-03-11T12:40:47;99481.33;;;2.32;69.38
76229;BME280;65021;53.174;18.160;2023-03-11T12:43:23;99494.39;;;2.34;69.50
76229;BME280;65021;53.174;18.160;2023-03-11T12:45:51;99494.36;;;2.41;68.73
76229;BME280;65021;53.174;18.160;2023-03-11T12:50:57;99500.61;;;2.35;68.08
76229;BME280;65021;53.174;18.160;2023-03-11T12:53:44;99508.14;;;2.52;68.21
76229;BME280;65021;53.174;18.160;2023-03-11T12:56:35;99516.77;;;2.63;67.70
76229;BME280;65021;53.174;18.160;2023-03-11T13:08:13;99551.38;;;2.48;68.40
76229;BME280;65021;53.174;18.160;2023-03-11T13:10:43;99558.75;;;2.40;68.66
76229;BME280;65021;53.174;18.160;2023-03-11T13:13:35;99564.30;;;2.46;69.59
76229;BME280;65021;53.174;18.160;2023-03-11T13:18:43;99575.56;;;2.52;68.02
76229;BME280;65021;53.174;18.160;2023-03-11T13:37:48;99606.85;;;3.23;67.23
76229;BME280;65021;53.174;18.160;2023-03-11T13:40:37;99616.52;;;3.27;66.95
76229;BME280;65021;53.174;18.160;2023-03-11T13:43:10;99619.16;;;3.01;65.54
76229;BME280;65021;53.174;18.160;2023-03-11T13:45:40;99630.95;;;2.91;66.73
76229;BME280;65021;53.174;18.160;2023-03-11T13:50:49;99648.14;;;2.64;66.51
76229;BME280;65021;53.174;18.160;2023-03-11T13:53:24;99651.64;;;2.52;66.21
76229;BME280;65021;53.174;18.160;2023-03-11T13:55:53;99658.30;;;2.50;66.40
76229;BME280;65021;53.174;18.160;2023-03-11T13:58:22;99659.27;;;2.52;66.99
76229;BME280;65021;53.174;18.160;2023-03-11T14:00:50;99663.05;;;2.40;66.25
76229;BME280;65021;53.174;18.160;2023-03-11T14:03:17;99665.87;;;2.37;66.77
76229;BME280;65021;53.174;18.160;2023-03-11T14:06:03;99672.33;;;2.31;65.82
76229;BME280;65021;53.174;18.160;2023-03-11T14:08:33;99677.16;;;2.32;66.03
76229;BME280;65021;53.174;18.160;2023-03-11T14:13:39;99683.61;;;2.35;66.52
76229;BME280;65021;53.174;18.160;2023-03-11T14:16:14;99691.02;;;2.28;66.52
76229;BME280;65021;53.174;18.160;2023-03-11T14:18:43;99698.21;;;2.22;67.14
76229;BME280;65021;53.174;18.160;2023-03-11T14:21:17;99705.42;;;2.14;67.02
76229;BME280;65021;53.174;18.160;2023-03-11T14:23:49;99709.95;;;2.22;67.84
76229;BME280;65021;53.174;18.160;2023-03-11T14:26:36;99711.52;;;2.27;67.99
76229;BME280;65021;53.174;18.160;2023-03-11T14:29:14;99723.05;;;2.24;67.44
76229;BME280;65021;53.174;18.160;2023-03-11T14:31:43;99724.05;;;2.11;67.30
76229;BME280;65021;53.174;18.160;2023-03-11T14:34:16;99721.25;;;2.03;67.74
76229;BME280;65021;53.174;18.160;2023-03-11T14:41:49;99728.19;;;1.97;67.89
76229;BME280;65021;53.174;18.160;2023-03-11T14:44:17;99726.58;;;1.98;66.71
76229;BME280;65021;53.174;18.160;2023-03-11T14:46:44;99729.42;;;2.05;66.63
76229;BME280;65021;53.174;18.160;2023-03-11T14:49:15;99735.54;;;2.16;66.52